Time;durP1;ratioP1;P1;durP2;ratioP2;P2;SDS_P1;SDS_P2;PMS_P1;PMS_P2;Temp;Humidity;BMP_temperature;BMP_pressure;BME280_temperature;BME280_humidity;BME280_pressure;Samples;Min_cycle;Max_cycle;Signal;HPM_P1;HPM_P2
2023/07/27 00:00:09;;;;;;;3.60;3.07;;;12.50;99.90;;;;;;5020710;28;20855;-81
2023/07/27 00:02:36;;;;;;;6.20;3.40;;;12.50;99.90;;;;;;5021622;28;20223;-82
2023/07/27 00:05:03;;;;;;;5.50;3.07;;;12.50;99.90;;;;;;5021613;28;20303;-81
2023/07/27 00:07:30;;;;;;;5.37;3.40;;;12.40;99.90;;;;;;5020946;28;20231;-81
2023/07/27 00:09:58;;;;;;;4.90;3.20;;;12.30;99.90;;;;;;5021170;28;20299;-81
2023/07/27 00:12:25;;;;;;;5.50;3.50;;;12.30;99.90;;;;;;5010460;28;20220;-81
2023/07/27 00:14:52;;;;;;;6.03;3.57;;;12.30;99.90;;;;;;5023834;28;20271;-81
2023/07/27 00:17:19;;;;;;;3.17;2.67;;;12.20;99.90;;;;;;5022739;28;20331;-82
2023/07/27 00:19:46;;;;;;;3.20;2.67;;;12.20;99.90;;;;;;5023091;28;20206;-81
2023/07/27 00:22:13;;;;;;;5.67;3.40;;;12.10;99.90;;;;;;5022983;28;20669;-81
2023/07/27 00:24:39;;;;;;;6.93;4.50;;;12.10;99.90;;;;;;5022995;28;20796;-81
2023/07/27 00:27:08;;;;;;;5.10;4.00;;;12.10;99.90;;;;;;5012312;28;20809;-81
2023/07/27 00:29:34;;;;;;;4.90;3.87;;;12.30;99.90;;;;;;5011076;28;20200;-81
2023/07/27 00:32:01;;;;;;;6.10;3.83;;;12.20;99.90;;;;;;5023936;28;20215;-81
2023/07/27 00:34:28;;;;;;;6.23;3.80;;;12.10;99.90;;;;;;5023272;28;20193;-81
2023/07/27 00:36:55;;;;;;;8.93;4.30;;;12.00;99.90;;;;;;5021743;28;20224;-81
2023/07/27 00:39:22;;;;;;;7.60;4.80;;;12.00;99.90;;;;;;5022544;28;20197;-81
2023/07/27 00:41:48;;;;;;;8.03;4.43;;;12.00;99.90;;;;;;5022627;28;20231;-81
2023/07/27 00:44:16;;;;;;;6.53;4.10;;;11.90;99.90;;;;;;5022421;28;20197;-81
2023/07/27 00:46:44;;;;;;;5.00;3.77;;;12.10;99.90;;;;;;5022047;28;20224;-81
2023/07/27 00:49:10;;;;;;;4.87;3.60;;;12.00;99.90;;;;;;5022518;28;20972;-81
2023/07/27 00:51:40;;;;;;;6.80;4.20;;;12.00;99.90;;;;;;5022605;28;20218;-81
2023/07/27 00:54:09;;;;;;;6.87;4.20;;;11.90;99.90;;;;;;5022970;28;20200;-81
2023/07/27 00:56:37;;;;;;;7.17;4.83;;;12.00;99.90;;;;;;5022353;28;20227;-81
2023/07/27 00:59:05;;;;;;;5.80;3.87;;;12.00;99.90;;;;;;5023272;28;20197;-81
2023/07/27 01:01:34;;;;;;;8.03;4.73;;;11.90;99.90;;;;;;5021768;28;20196;-81
2023/07/27 01:04:01;;;;;;;6.47;4.40;;;11.90;99.90;;;;;;5023059;28;20204;-80
2023/07/27 01:06:29;;;;;;;6.73;4.70;;;11.90;99.90;;;;;;5021920;28;20571;-81
2023/07/27 01:08:56;;;;;;;6.23;4.20;;;11.90;99.90;;;;;;5022486;28;20208;-81
2023/07/27 01:11:32;;;;;;;7.23;4.83;;;11.90;99.90;;;;;;5021262;28;20264;-81
2023/07/27 01:14:05;;;;;;;11.23;4.90;;;11.90;99.90;;;;;;5022042;28;20195;-81
2023/07/27 01:16:40;;;;;;;7.10;5.00;;;11.80;99.90;;;;;;5022256;28;20224;-81
2023/07/27 01:19:34;;;;;;;9.00;5.27;;;11.90;99.90;;;;;;5022662;28;20204;-81
2023/07/27 01:22:14;;;;;;;7.43;4.50;;;11.90;99.90;;;;;;5022872;28;20218;-81
2023/07/27 01:25:06;;;;;;;7.20;5.50;;;11.80;99.90;;;;;;5023003;28;20290;-80
2023/07/27 01:27:49;;;;;;;8.17;5.33;;;11.80;99.90;;;;;;5021140;28;20301;-81
2023/07/27 01:30:49;;;;;;;8.03;5.20;;;11.80;99.90;;;;;;5022133;28;20279;-81
2023/07/27 01:33:22;;;;;;;8.10;5.20;;;11.80;99.90;;;;;;5021801;28;20204;-81
2023/07/27 01:35:56;;;;;;;9.63;5.33;;;11.80;99.90;;;;;;5021734;28;20223;-81
2023/07/27 01:38:24;;;;;;;7.50;5.00;;;11.80;99.90;;;;;;5021550;28;20292;-81
2023/07/27 01:40:53;;;;;;;8.13;5.63;;;11.70;99.90;;;;;;5022192;28;20201;-81
2023/07/27 01:43:20;;;;;;;10.30;5.63;;;11.80;99.90;;;;;;5020218;28;20203;-81
2023/07/27 01:45:50;;;;;;;7.27;5.27;;;11.70;99.90;;;;;;5021674;28;20232;-81
2023/07/27 01:48:18;;;;;;;10.20;6.53;;;11.70;99.90;;;;;;5019147;28;20200;-81
2023/07/27 01:50:46;;;;;;;8.60;5.77;;;11.80;99.90;;;;;;5022069;28;20214;-81
2023/07/27 01:53:15;;;;;;;9.47;6.87;;;11.90;99.90;;;;;;5021628;28;20197;-81
2023/07/27 01:55:43;;;;;;;8.20;5.40;;;12.00;99.90;;;;;;5022055;28;20218;-81
2023/07/27 01:58:11;;;;;;;9.57;5.93;;;12.10;99.90;;;;;;5021070;28;20204;-81
2023/07/27 02:00:38;;;;;;;11.03;6.17;;;12.20;99.90;;;;;;5021858;28;20220;-81
2023/07/27 02:03:07;;;;;;;8.57;5.73;;;12.10;99.90;;;;;;5021898;28;20236;-81
2023/07/27 02:05:35;;;;;;;9.57;6.17;;;12.10;99.90;;;;;;5021000;28;20197;-81
2023/07/27 02:08:01;;;;;;;9.47;6.53;;;12.20;99.90;;;;;;5020850;28;20238;-81
2023/07/27 02:10:30;;;;;;;8.70;5.73;;;12.30;99.90;;;;;;5021876;28;20200;-81
2023/07/27 02:13:02;;;;;;;7.73;6.20;;;12.30;99.90;;;;;;5020343;28;20209;-81
2023/07/27 02:15:37;;;;;;;7.50;5.37;;;12.30;99.90;;;;;;5021183;28;20223;-81
2023/07/27 02:18:15;;;;;;;8.10;5.20;;;12.40;99.90;;;;;;5021863;28;20776;-81
2023/07/27 02:20:43;;;;;;;6.63;5.27;;;12.50;99.90;;;;;;5021779;28;20200;-81
2023/07/27 02:23:11;;;;;;;8.33;4.97;;;12.70;99.90;;;;;;5010465;28;20193;-81
2023/07/27 02:25:38;;;;;;;7.10;4.70;;;12.60;99.90;;;;;;5020124;28;20211;-81
2023/07/27 02:28:05;;;;;;;7.50;4.70;;;12.70;99.90;;;;;;5020742;28;20235;-81
2023/07/27 02:30:32;;;;;;;7.87;5.17;;;12.80;99.90;;;;;;5021475;28;20654;-82
2023/07/27 02:32:58;;;;;;;7.73;4.40;;;12.80;99.90;;;;;;5020618;28;20204;-80
2023/07/27 02:35:27;;;;;;;8.77;5.30;;;12.60;99.90;;;;;;5014474;28;20216;-82
2023/07/27 02:37:53;;;;;;;8.40;5.13;;;12.70;99.90;;;;;;5027761;28;20263;-81
2023/07/27 02:40:20;;;;;;;8.23;5.27;;;12.70;99.90;;;;;;5016304;28;20211;-81
2023/07/27 02:42:47;;;;;;;6.10;4.90;;;12.70;99.90;;;;;;5014641;28;20212;-81
2023/07/27 02:45:14;;;;;;;7.30;4.80;;;12.50;99.90;;;;;;5009556;28;20215;-81
2023/07/27 02:47:40;;;;;;;7.20;4.73;;;12.50;99.90;;;;;;5016447;28;20604;-81
2023/07/27 02:50:08;;;;;;;5.13;4.23;;;12.60;99.90;;;;;;5020123;28;20196;-80
2023/07/27 02:52:37;;;;;;;7.40;4.80;;;12.60;99.90;;;;;;5019787;28;20212;-81
2023/07/27 02:55:04;;;;;;;6.40;4.83;;;12.70;99.90;;;;;;5020707;28;20312;-80
2023/07/27 02:57:32;;;;;;;7.80;4.90;;;12.80;99.90;;;;;;5018655;28;20223;-81
2023/07/27 02:59:59;;;;;;;6.63;4.47;;;12.70;99.90;;;;;;5019988;28;20271;-81
2023/07/27 03:02:25;;;;;;;7.37;4.67;;;12.60;99.90;;;;;;5020698;28;20619;-81
2023/07/27 03:04:52;;;;;;;5.70;4.20;;;12.70;99.90;;;;;;5019796;28;20204;-81
2023/07/27 03:07:19;;;;;;;7.57;4.33;;;12.60;99.90;;;;;;5019196;28;20231;-80
2023/07/27 03:09:51;;;;;;;7.53;4.30;;;12.60;99.90;;;;;;5020147;28;20208;-81
2023/07/27 03:12:18;;;;;;;8.67;4.67;;;12.70;99.90;;;;;;5020047;28;20287;-81
2023/07/27 03:14:45;;;;;;;8.03;5.27;;;12.60;99.90;;;;;;5020549;28;20800;-81
2023/07/27 03:17:12;;;;;;;7.87;4.90;;;12.60;99.90;;;;;;5019957;28;20235;-81
2023/07/27 03:19:38;;;;;;;6.97;5.27;;;12.50;99.90;;;;;;5019429;28;20196;-81
2023/07/27 03:22:06;;;;;;;5.87;4.60;;;12.60;99.90;;;;;;5021481;28;20690;-81
2023/07/27 03:24:33;;;;;;;8.50;5.17;;;12.60;99.90;;;;;;5020182;28;20201;-81
2023/07/27 03:27:01;;;;;;;5.70;4.70;;;12.60;99.90;;;;;;5018584;28;20228;-80
2023/07/27 03:29:28;;;;;;;7.50;4.90;;;12.60;99.90;;;;;;5020298;28;20200;-80
2023/07/27 03:31:54;;;;;;;6.73;4.87;;;12.80;99.90;;;;;;5019846;28;20200;-81
2023/07/27 03:34:21;;;;;;;7.03;4.77;;;12.70;99.90;;;;;;5018402;28;20233;-81
2023/07/27 03:36:48;;;;;;;8.73;5.00;;;12.70;99.90;;;;;;5021009;28;20247;-80
2023/07/27 03:39:15;;;;;;;9.83;6.60;;;12.70;99.90;;;;;;5022687;28;20200;-81
2023/07/27 03:41:41;;;;;;;9.40;5.37;;;12.70;99.90;;;;;;5023042;28;20207;-80
2023/07/27 03:44:11;;;;;;;6.93;4.80;;;12.80;99.90;;;;;;5021591;28;20208;-81
2023/07/27 03:46:38;;;;;;;5.93;4.80;;;12.90;99.90;;;;;;5022278;28;20247;-80
2023/07/27 03:49:05;;;;;;;7.37;4.87;;;12.90;99.90;;;;;;5021254;28;20222;-81
2023/07/27 03:51:31;;;;;;;8.33;4.63;;;13.00;99.90;;;;;;5022314;28;20204;-80
2023/07/27 03:53:58;;;;;;;7.77;5.00;;;13.20;99.90;;;;;;5021710;28;20203;-81
2023/07/27 03:56:25;;;;;;;5.90;4.60;;;13.20;99.90;;;;;;5024890;28;20220;-81
2023/07/27 03:58:52;;;;;;;7.57;5.17;;;13.40;99.90;;;;;;5022573;28;20208;-80
2023/07/27 04:01:20;;;;;;;7.17;5.30;;;13.60;99.90;;;;;;5020361;28;20192;-80
2023/07/27 04:03:47;;;;;;;7.50;4.37;;;13.70;99.90;;;;;;5020392;28;20256;-82
2023/07/27 04:06:14;;;;;;;8.30;5.23;;;13.70;99.90;;;;;;5019589;28;20299;-81
2023/07/27 04:08:40;;;;;;;7.03;4.87;;;13.90;99.90;;;;;;5016862;28;20307;-82
2023/07/27 04:11:07;;;;;;;6.80;4.50;;;14.00;99.90;;;;;;5020599;28;20207;-81
2023/07/27 04:13:34;;;;;;;6.60;4.50;;;14.00;99.90;;;;;;5021614;28;20958;-82
2023/07/27 04:16:01;;;;;;;7.10;4.47;;;14.00;99.90;;;;;;5020524;28;20238;-82
2023/07/27 04:18:29;;;;;;;5.93;3.80;;;14.00;99.90;;;;;;5020594;28;20203;-81
2023/07/27 04:20:55;;;;;;;6.33;4.33;;;14.10;99.90;;;;;;5018413;28;20212;-81
2023/07/27 04:23:22;;;;;;;4.87;4.10;;;14.20;99.90;;;;;;5018337;28;20205;-81
2023/07/27 04:25:49;;;;;;;4.67;3.73;;;14.30;99.90;;;;;;5017198;28;20235;-82
2023/07/27 04:28:16;;;;;;;5.73;3.40;;;14.30;99.90;;;;;;5017908;28;20250;-82
2023/07/27 04:30:44;;;;;;;5.23;4.00;;;14.40;99.90;;;;;;5017275;28;20204;-81
2023/07/27 04:33:11;;;;;;;4.23;3.33;;;14.40;99.90;;;;;;5014529;28;20667;-82
2023/07/27 04:35:39;;;;;;;6.57;3.73;;;14.30;99.90;;;;;;5001412;28;20208;-81
2023/07/27 04:38:05;;;;;;;5.27;3.87;;;14.40;99.90;;;;;;5019408;28;20593;-82
2023/07/27 04:40:32;;;;;;;4.33;3.47;;;14.50;99.90;;;;;;5019928;28;20643;-82
2023/07/27 04:42:59;;;;;;;4.10;3.43;;;14.50;99.90;;;;;;5019596;28;20201;-82
2023/07/27 04:45:26;;;;;;;6.50;3.60;;;14.50;99.90;;;;;;5018756;28;20215;-82
2023/07/27 04:47:53;;;;;;;5.07;3.70;;;14.50;99.90;;;;;;5018362;28;20614;-82
2023/07/27 04:50:19;;;;;;;3.60;3.30;;;14.50;99.90;;;;;;5019616;28;20834;-81
2023/07/27 04:52:47;;;;;;;5.03;3.27;;;14.50;99.90;;;;;;5019442;28;20212;-81
2023/07/27 04:55:15;;;;;;;7.90;3.30;;;14.60;99.90;;;;;;5020622;28;20219;-82
2023/07/27 04:57:42;;;;;;;4.20;3.20;;;14.60;99.90;;;;;;5018029;28;20212;-81
2023/07/27 05:00:09;;;;;;;4.30;3.37;;;14.70;99.90;;;;;;5019609;28;20200;-82
2023/07/27 05:02:36;;;;;;;4.03;3.50;;;14.60;99.90;;;;;;5019765;28;20663;-82
2023/07/27 05:05:03;;;;;;;24.85;5.82;;;14.70;99.90;;;;;;5018593;28;20207;-82
2023/07/27 05:07:30;;;;;;;9.73;3.80;;;14.70;99.90;;;;;;5017515;28;20228;-82
2023/07/27 05:09:58;;;;;;;10.10;3.90;;;14.90;99.90;;;;;;5018647;28;20228;-81
2023/07/27 05:12:25;;;;;;;20.93;5.97;;;14.80;99.90;;;;;;5018373;28;20663;-81
2023/07/27 05:14:52;;;;;;;4.23;3.00;;;14.80;99.90;;;;;;5019032;28;20295;-82
2023/07/27 05:17:18;;;;;;;12.57;4.40;;;14.80;99.90;;;;;;5018671;28;20230;-82
2023/07/27 05:19:45;;;;;;;15.17;4.00;;;14.80;99.90;;;;;;4998012;28;20199;-82
2023/07/27 05:22:12;;;;;;;6.40;3.60;;;14.90;99.90;;;;;;5010964;28;20211;-82
2023/07/27 05:24:39;;;;;;;10.63;3.67;;;14.90;99.90;;;;;;5018121;28;20594;-82
2023/07/27 05:27:07;;;;;;;8.43;3.90;;;14.90;99.90;;;;;;5017475;28;20228;-82
2023/07/27 05:29:34;;;;;;;9.43;4.13;;;14.90;99.90;;;;;;5018068;28;20210;-82
2023/07/27 05:32:01;;;;;;;4.22;3.20;;;14.90;99.90;;;;;;5018041;28;20200;-82
2023/07/27 05:34:28;;;;;;;12.35;4.20;;;14.90;99.90;;;;;;5018299;28;20200;-82
2023/07/27 05:36:54;;;;;;;12.95;4.22;;;15.00;99.90;;;;;;5017220;28;20230;-82
2023/07/27 05:39:21;;;;;;;6.97;3.73;;;15.00;99.90;;;;;;5018864;28;20218;-82
2023/07/27 05:41:48;;;;;;;6.30;3.25;;;15.00;99.90;;;;;;5017592;28;20686;-82
2023/07/27 05:44:16;;;;;;;7.03;3.50;;;15.10;99.90;;;;;;5017227;28;20204;-82
2023/07/27 05:46:43;;;;;;;7.20;3.17;;;15.10;99.90;;;;;;5018262;28;20589;-82
2023/07/27 05:49:10;;;;;;;3.33;3.00;;;15.10;99.90;;;;;;5019098;28;20238;-83
2023/07/27 05:51:36;;;;;;;4.63;3.08;;;15.10;99.90;;;;;;5018500;28;20674;-82
2023/07/27 05:54:03;;;;;;;4.75;2.92;;;15.20;99.90;;;;;;5017104;28;20208;-82
2023/07/27 05:56:30;;;;;;;5.15;3.10;;;15.30;99.90;;;;;;5017512;28;20228;-82
2023/07/27 05:58:57;;;;;;;6.18;3.20;;;15.40;99.90;;;;;;5016444;28;20204;-82
2023/07/27 06:01:25;;;;;;;3.47;3.10;;;15.50;99.90;;;;;;5017223;28;20196;-81
2023/07/27 06:03:52;;;;;;;9.68;3.20;;;15.50;99.90;;;;;;5017023;28;20287;-82
2023/07/27 06:06:18;;;;;;;5.40;3.47;;;15.60;99.90;;;;;;5017646;28;20216;-82
2023/07/27 06:08:45;;;;;;;4.15;3.05;;;15.70;99.90;;;;;;5016772;28;20227;-82
2023/07/27 06:11:13;;;;;;;4.90;3.00;;;15.60;99.90;;;;;;5018570;28;20223;-82
2023/07/27 06:13:39;;;;;;;5.50;3.03;;;15.70;99.90;;;;;;5018330;28;20232;-82
2023/07/27 06:16:06;;;;;;;4.07;2.95;;;15.60;99.90;;;;;;5016367;28;20725;-82
2023/07/27 06:18:35;;;;;;;4.50;3.33;;;15.60;99.90;;;;;;5016891;28;20238;-82
2023/07/27 06:21:02;;;;;;;4.68;3.30;;;15.60;99.90;;;;;;4999566;28;20212;-82
2023/07/27 06:23:28;;;;;;;5.28;3.53;;;15.60;99.90;;;;;;5016412;28;20218;-82
2023/07/27 06:25:55;;;;;;;3.50;3.05;;;15.60;99.90;;;;;;5017464;28;20222;-81
2023/07/27 06:28:22;;;;;;;4.68;3.10;;;15.80;99.90;;;;;;5017466;28;20223;-82
2023/07/27 06:30:49;;;;;;;4.05;2.85;;;15.70;99.90;;;;;;5017601;28;20211;-82
2023/07/27 06:33:16;;;;;;;4.20;2.70;;;15.70;99.90;;;;;;5015853;28;20580;-82
2023/07/27 06:35:44;;;;;;;5.43;2.90;;;15.80;99.90;;;;;;5016231;28;20602;-82
2023/07/27 06:38:11;;;;;;;4.88;2.95;;;15.80;99.90;;;;;;5010848;28;20210;-82
2023/07/27 06:40:38;;;;;;;5.10;3.35;;;15.80;99.90;;;;;;5014646;28;20279;-82
2023/07/27 06:43:05;;;;;;;3.95;2.78;;;15.90;99.90;;;;;;5011963;28;20204;-81
2023/07/27 06:45:33;;;;;;;3.55;2.90;;;16.00;99.90;;;;;;5015652;28;20203;-82
2023/07/27 06:48:00;;;;;;;5.00;3.10;;;16.00;99.90;;;;;;5004672;28;20251;-82
2023/07/27 06:50:27;;;;;;;6.00;3.25;;;16.00;99.90;;;;;;5016417;28;20208;-81
2023/07/27 06:52:55;;;;;;;5.55;3.65;;;16.00;99.90;;;;;;5016524;28;20235;-82
2023/07/27 06:55:22;;;;;;;3.40;2.83;;;16.00;99.90;;;;;;5016220;28;20843;-82
2023/07/27 06:57:49;;;;;;;4.43;2.90;;;16.10;99.90;;;;;;5015869;28;20287;-82
2023/07/27 07:00:16;;;;;;;3.78;3.00;;;16.00;99.90;;;;;;5016575;28;20208;-82
2023/07/27 07:02:44;;;;;;;5.95;2.72;;;15.90;99.90;;;;;;5016410;28;20216;-82
2023/07/27 07:05:11;;;;;;;6.18;3.22;;;15.90;99.90;;;;;;5015823;28;20239;-81
2023/07/27 07:07:38;;;;;;;4.45;3.45;;;15.90;99.90;;;;;;5014501;28;20306;-82
2023/07/27 07:10:08;;;;;;;3.35;2.75;;;15.90;99.90;;;;;;5017380;28;20211;-81
2023/07/27 07:12:35;;;;;;;3.95;3.05;;;15.90;99.90;;;;;;5019800;28;20208;-81
2023/07/27 07:15:02;;;;;;;4.72;3.20;;;15.80;99.90;;;;;;5019324;28;20204;-81
2023/07/27 07:17:29;;;;;;;6.03;3.35;;;15.70;99.90;;;;;;5019134;28;20224;-82
2023/07/27 07:19:56;;;;;;;5.55;3.47;;;15.60;99.90;;;;;;5019939;28;20196;-81
2023/07/27 07:22:23;;;;;;;3.92;3.22;;;15.70;99.90;;;;;;5020720;28;20200;-81
2023/07/27 07:24:50;;;;;;;5.05;3.97;;;15.60;99.90;;;;;;5020369;28;20200;-82
2023/07/27 07:27:18;;;;;;;6.07;3.80;;;15.50;99.90;;;;;;5018626;28;20228;-81
2023/07/27 07:29:45;;;;;;;5.85;3.42;;;15.60;99.90;;;;;;5019257;28;20216;-81
2023/07/27 07:32:12;;;;;;;4.70;3.42;;;15.60;99.90;;;;;;5019762;28;20204;-82
2023/07/27 07:34:38;;;;;;;6.35;4.00;;;15.60;99.90;;;;;;5019868;28;20204;-82
2023/07/27 07:37:05;;;;;;;6.10;3.75;;;15.60;99.90;;;;;;5010620;28;20603;-82
2023/07/27 07:39:32;;;;;;;7.40;3.63;;;15.70;99.90;;;;;;5000912;28;20197;-80
2023/07/27 07:42:00;;;;;;;5.47;3.92;;;15.60;99.90;;;;;;5018161;28;20222;-82
2023/07/27 07:44:29;;;;;;;5.05;3.30;;;15.60;99.90;;;;;;5018779;28;20662;-82
2023/07/27 07:46:56;;;;;;;5.30;3.60;;;15.50;99.90;;;;;;5020934;28;20232;-82
2023/07/27 07:49:26;;;;;;;4.32;3.28;;;15.50;99.90;;;;;;5020140;28;20242;-81
2023/07/27 07:51:52;;;;;;;5.13;3.60;;;15.50;99.90;;;;;;5019476;28;20207;-80
2023/07/27 07:54:20;;;;;;;5.75;3.38;;;15.60;99.90;;;;;;5019948;28;20238;-81
2023/07/27 07:56:47;;;;;;;6.65;3.63;;;15.60;99.90;;;;;;5019663;28;20228;-80
2023/07/27 07:59:14;;;;;;;6.03;3.70;;;15.60;99.90;;;;;;5019818;28;20227;-81
2023/07/27 08:01:42;;;;;;;5.80;3.63;;;15.60;99.90;;;;;;5019518;28;20196;-81
2023/07/27 08:04:09;;;;;;;4.88;3.88;;;15.60;99.90;;;;;;5018535;28;20205;-81
2023/07/27 08:06:36;;;;;;;6.80;3.67;;;15.60;99.90;;;;;;5019194;28;20239;-82
2023/07/27 08:09:03;;;;;;;5.88;3.88;;;15.70;99.90;;;;;;5019342;28;20224;-82
2023/07/27 08:11:30;;;;;;;6.65;3.83;;;15.50;99.90;;;;;;5005104;28;20200;-80
2023/07/27 08:13:58;;;;;;;6.00;3.50;;;15.50;99.90;;;;;;5006512;28;20201;-82
2023/07/27 08:16:25;;;;;;;5.95;3.80;;;15.50;99.90;;;;;;5018217;28;20220;-80
2023/07/27 08:18:53;;;;;;;6.28;3.88;;;15.70;99.90;;;;;;5019221;28;20211;-81
2023/07/27 08:21:21;;;;;;;7.18;4.22;;;15.60;99.90;;;;;;5017792;28;20304;-81
2023/07/27 08:23:48;;;;;;;5.65;3.72;;;15.70;99.90;;;;;;5018674;28;20294;-80
2023/07/27 08:26:15;;;;;;;4.90;3.70;;;15.60;99.90;;;;;;5017631;28;20598;-81
2023/07/27 08:28:42;;;;;;;7.32;4.07;;;15.50;99.90;;;;;;5017713;28;20224;-80
2023/07/27 08:31:09;;;;;;;6.90;3.88;;;15.40;99.90;;;;;;5017190;28;20200;-81
2023/07/27 08:33:35;;;;;;;5.65;4.20;;;15.50;99.90;;;;;;5016778;28;20735;-83
2023/07/27 08:36:04;;;;;;;6.05;3.88;;;15.60;99.90;;;;;;5016332;28;20223;-80
2023/07/27 08:38:32;;;;;;;7.15;3.53;;;15.60;99.90;;;;;;5017964;28;20668;-80
2023/07/27 08:41:00;;;;;;;5.20;4.10;;;15.50;99.90;;;;;;5017031;28;20212;-82
2023/07/27 08:43:28;;;;;;;6.40;3.92;;;15.50;99.90;;;;;;5017281;28;20670;-82
2023/07/27 08:45:55;;;;;;;7.50;4.30;;;15.50;99.90;;;;;;5015807;28;20246;-81
2023/07/27 08:48:24;;;;;;;5.70;4.47;;;15.60;99.90;;;;;;5016458;28;20212;-81
2023/07/27 08:50:53;;;;;;;7.75;4.50;;;15.70;99.90;;;;;;5016709;28;20200;-80
2023/07/27 08:53:21;;;;;;;6.38;4.40;;;15.70;99.90;;;;;;5016472;28;20196;-81
2023/07/27 08:55:48;;;;;;;6.10;4.38;;;15.70;99.90;;;;;;5016384;28;20232;-81
2023/07/27 08:58:15;;;;;;;5.25;4.00;;;15.60;99.90;;;;;;5015071;28;20199;-80
2023/07/27 09:00:42;;;;;;;7.63;4.57;;;15.70;99.90;;;;;;5015989;28;20200;-81
2023/07/27 09:03:09;;;;;;;5.68;4.22;;;15.70;99.90;;;;;;5015800;28;20210;-81
2023/07/27 09:05:40;;;;;;;7.75;4.97;;;15.70;99.90;;;;;;5016047;28;20283;-80
2023/07/27 09:08:08;;;;;;;7.45;5.05;;;15.80;99.90;;;;;;5014343;28;20208;-82
2023/07/27 09:10:38;;;;;;;7.68;4.28;;;15.70;99.90;;;;;;5016529;28;20284;-81
2023/07/27 09:13:05;;;;;;;6.28;4.25;;;15.90;99.90;;;;;;5012923;28;20200;-81
2023/07/27 09:15:33;;;;;;;5.22;4.10;;;15.60;99.90;;;;;;5016584;28;20201;-81
2023/07/27 09:18:01;;;;;;;5.88;4.43;;;15.80;99.90;;;;;;5016103;28;20212;-82
2023/07/27 09:20:29;;;;;;;8.38;4.47;;;16.00;99.90;;;;;;5016720;28;20576;-81
2023/07/27 09:22:56;;;;;;;8.15;4.65;;;15.80;99.90;;;;;;5016566;28;20675;-81
2023/07/27 09:25:23;;;;;;;6.72;4.80;;;15.90;99.90;;;;;;5016733;28;20254;-82
2023/07/27 09:27:54;;;;;;;7.20;5.20;;;16.00;99.90;;;;;;5015469;28;20217;-81
2023/07/27 09:30:22;;;;;;;4.93;4.03;;;16.00;99.90;;;;;;5017209;28;20235;-82
2023/07/27 09:32:49;;;;;;;6.68;4.60;;;16.00;99.90;;;;;;5016518;28;20204;-81
2023/07/27 09:35:17;;;;;;;6.95;4.25;;;16.00;99.90;;;;;;5016606;28;20290;-81
2023/07/27 09:37:44;;;;;;;10.15;4.72;;;15.90;99.90;;;;;;5015025;28;20250;-81
2023/07/27 09:40:15;;;;;;;7.75;4.40;;;16.00;99.90;;;;;;5015419;28;20530;-81
2023/07/27 09:42:43;;;;;;;6.63;4.45;;;16.00;99.90;;;;;;5016342;28;20196;-82
2023/07/27 09:45:11;;;;;;;5.05;4.45;;;15.90;99.90;;;;;;5016399;28;20204;-82
2023/07/27 09:47:38;;;;;;;6.57;4.45;;;16.00;99.90;;;;;;5016344;28;20236;-82
2023/07/27 09:50:06;;;;;;;6.10;4.50;;;15.80;99.90;;;;;;5016822;28;20226;-81
2023/07/27 09:52:36;;;;;;;8.00;4.63;;;15.80;99.90;;;;;;5015904;28;20591;-80
2023/07/27 09:55:04;;;;;;;5.40;4.68;;;15.70;99.90;;;;;;5017298;28;20222;-81
2023/07/27 09:57:31;;;;;;;11.35;6.43;;;15.70;99.90;;;;;;5015941;28;20702;-81
2023/07/27 09:59:59;;;;;;;8.88;6.00;;;15.80;99.90;;;;;;5017289;28;20204;-81
2023/07/27 10:02:27;;;;;;;6.05;5.32;;;15.80;99.90;;;;;;5015565;28;20560;-81
2023/07/27 10:04:54;;;;;;;7.63;5.45;;;15.70;99.90;;;;;;5007097;28;20209;-82
2023/07/27 10:07:22;;;;;;;7.97;5.13;;;15.80;99.90;;;;;;5014440;28;20327;-81
2023/07/27 10:10:09;;;;;;;6.70;4.43;;;15.90;99.90;;;;;;5016057;28;20666;-80
2023/07/27 10:12:36;;;;;;;6.90;4.45;;;15.80;99.90;;;;;;5014503;28;20631;-81
2023/07/27 10:15:22;;;;;;;6.13;4.68;;;15.80;99.90;;;;;;5015170;28;20647;-82
2023/07/27 10:17:52;;;;;;;8.07;4.80;;;15.80;99.90;;;;;;4995614;28;20219;-81
2023/07/27 10:20:24;;;;;;;5.63;4.55;;;15.90;99.90;;;;;;4995569;28;20204;-81
2023/07/27 10:22:52;;;;;;;7.38;4.45;;;15.80;99.90;;;;;;5003076;28;20607;-82
2023/07/27 10:25:19;;;;;;;4.80;4.18;;;15.70;99.90;;;;;;5014860;28;20211;-81
2023/07/27 10:27:55;;;;;;;4.88;3.80;;;15.80;99.90;;;;;;5014368;28;20220;-82
2023/07/27 10:30:22;;;;;;;6.72;4.28;;;15.70;99.90;;;;;;5014515;28;20888;-81
2023/07/27 10:33:16;;;;;;;5.05;4.30;;;15.90;99.90;;;;;;5013684;28;20208;-81
2023/07/27 10:36:02;;;;;;;4.60;4.05;;;15.90;99.90;;;;;;5003100;28;20567;-81
2023/07/27 10:38:32;;;;;;;4.90;3.95;;;15.90;99.90;;;;;;5012623;28;20204;-81
2023/07/27 10:41:12;;;;;;;4.40;3.63;;;15.90;99.90;;;;;;5015720;28;20200;-82
2023/07/27 10:43:59;;;;;;;4.85;3.53;;;16.10;99.90;;;;;;5011385;28;20209;-81
2023/07/27 10:46:26;;;;;;;4.55;3.60;;;16.00;99.90;;;;;;5013630;28;20709;-82
2023/07/27 10:49:08;;;;;;;4.13;3.33;;;16.00;99.90;;;;;;5016598;28;20231;-82
2023/07/27 10:51:39;;;;;;;4.07;2.90;;;16.10;99.90;;;;;;5014927;28;20204;-81
2023/07/27 10:54:06;;;;;;;3.72;3.30;;;16.00;99.90;;;;;;5014681;28;20239;-82
2023/07/27 10:56:34;;;;;;;4.30;3.20;;;16.10;99.90;;;;;;5014310;28;20618;-81
2023/07/27 10:59:02;;;;;;;5.10;3.47;;;16.20;99.90;;;;;;5015538;28;20215;-81
2023/07/27 11:01:30;;;;;;;4.35;2.92;;;16.10;99.90;;;;;;5016327;28;20204;-82
2023/07/27 11:04:01;;;;;;;4.43;3.10;;;16.10;99.90;;;;;;5047669;28;20209;-83
2023/07/27 11:06:29;;;;;;;5.85;3.13;;;16.20;99.90;;;;;;5016104;28;20224;-82
2023/07/27 11:09:04;;;;;;;5.40;3.20;;;16.20;99.90;;;;;;5015404;28;20566;-83
2023/07/27 11:11:31;;;;;;;4.38;2.90;;;16.10;99.90;;;;;;5015069;28;20184;-82
2023/07/27 11:14:05;;;;;;;4.97;3.10;;;16.20;99.90;;;;;;5014043;28;20196;-82
2023/07/27 11:16:32;;;;;;;4.13;2.67;;;16.10;99.90;;;;;;5014719;28;20677;-81
2023/07/27 11:19:03;;;;;;;4.55;2.88;;;16.10;99.90;;;;;;5015412;28;20573;-81
2023/07/27 11:21:32;;;;;;;5.97;3.28;;;16.30;99.90;;;;;;5015036;28;20207;-82
2023/07/27 11:23:58;;;;;;;3.63;2.53;;;16.20;99.90;;;;;;4995463;28;20211;-81
2023/07/27 11:26:26;;;;;;;2.50;2.30;;;16.10;99.90;;;;;;5001248;28;20216;-81
2023/07/27 11:28:55;;;;;;;3.05;2.75;;;16.00;99.90;;;;;;5013998;28;20214;-81
2023/07/27 11:31:22;;;;;;;2.60;2.40;;;16.00;99.90;;;;;;5013387;28;20283;-80
2023/07/27 11:33:49;;;;;;;3.63;2.45;;;16.10;99.90;;;;;;5013799;28;20331;-81
2023/07/27 11:36:17;;;;;;;4.25;2.50;;;16.00;99.90;;;;;;5013323;28;20231;-81
2023/07/27 11:38:44;;;;;;;2.20;2.00;;;16.10;99.90;;;;;;5014722;28;20232;-81
2023/07/27 11:41:11;;;;;;;3.10;2.80;;;16.10;99.90;;;;;;5015703;28;20203;-81
2023/07/27 11:43:39;;;;;;;2.70;2.50;;;15.90;99.90;;;;;;5015452;28;20219;-81
2023/07/27 11:46:06;;;;;;;2.10;1.90;;;16.00;99.90;;;;;;5015165;28;20225;-82
2023/07/27 11:48:33;;;;;;;2.28;2.00;;;16.20;99.90;;;;;;5015274;28;20219;-82
2023/07/27 11:51:02;;;;;;;2.03;1.92;;;16.40;99.90;;;;;;5015553;28;20231;-82
2023/07/27 11:53:30;;;;;;;2.75;2.55;;;16.40;99.90;;;;;;5015241;28;20193;-82
2023/07/27 11:55:57;;;;;;;3.03;2.58;;;16.40;99.90;;;;;;5017572;28;20263;-82
2023/07/27 11:58:27;;;;;;;2.72;2.53;;;16.50;99.90;;;;;;5020514;28;20212;-81
2023/07/27 12:00:56;;;;;;;2.58;2.35;;;16.40;99.90;;;;;;5020569;28;20231;-81
2023/07/27 12:03:25;;;;;;;2.50;2.30;;;16.60;99.90;;;;;;5018324;28;20214;-82
2023/07/27 12:05:54;;;;;;;2.45;2.25;;;16.70;99.90;;;;;;5016944;28;20224;-83
2023/07/27 12:08:22;;;;;;;3.10;2.28;;;16.70;99.90;;;;;;5015500;28;20210;-80
2023/07/27 12:10:54;;;;;;;3.20;2.08;;;16.60;99.90;;;;;;5016574;28;20693;-81
2023/07/27 12:13:22;;;;;;;2.95;2.50;;;16.50;99.90;;;;;;5019688;28;20213;-81
2023/07/27 12:15:58;;;;;;;2.47;2.28;;;16.50;99.90;;;;;;5011924;28;20709;-81
2023/07/27 12:18:26;;;;;;;2.47;1.90;;;16.40;99.90;;;;;;5015598;28;20686;-82
2023/07/27 12:20:53;;;;;;;2.45;2.25;;;16.60;99.90;;;;;;5017439;28;20638;-81
2023/07/27 12:23:20;;;;;;;2.67;1.73;;;16.40;99.90;;;;;;5014271;28;20209;-81
2023/07/27 12:25:48;;;;;;;1.98;1.88;;;16.60;99.90;;;;;;5017662;28;20756;-82
2023/07/27 12:28:16;;;;;;;2.00;1.90;;;16.60;99.90;;;;;;5018536;28;20209;-82
2023/07/27 12:30:43;;;;;;;1.70;1.60;;;16.80;99.90;;;;;;5010375;28;20240;-81
2023/07/27 12:33:11;;;;;;;2.72;2.03;;;16.50;99.90;;;;;;5014867;28;20208;-82
2023/07/27 12:35:38;;;;;;;1.88;1.75;;;16.70;99.90;;;;;;5009170;28;20235;-83
2023/07/27 12:38:05;;;;;;;2.08;1.98;;;16.50;99.90;;;;;;5012894;28;20276;-83
2023/07/27 12:40:31;;;;;;;2.05;1.40;;;16.80;99.90;;;;;;5017255;28;20206;-83
2023/07/27 12:42:58;;;;;;;1.52;1.42;;;16.80;99.90;;;;;;5013019;28;20197;-83
2023/07/27 12:45:27;;;;;;;1.70;1.60;;;16.60;99.90;;;;;;5011903;28;20200;-81
2023/07/27 12:47:54;;;;;;;1.95;1.20;;;16.60;99.90;;;;;;5005802;28;20204;-82
2023/07/27 12:50:21;;;;;;;1.65;1.55;;;16.70;99.90;;;;;;5014360;28;20279;-82